Airfield :
LOGIN :

Register | Disclaimer

   EN    FR    IT 

 










Legend :    VFR   Marginal VFR   IFR   Intensive IFR   Very Intensive IFR
Visi :
Ceiling :
>= 8 km
>= 3000ft
5 to 8 km
1000 to 3000 ft
1500m to 5 km
500 to 1000 ft
800 to 1500m
200 to 500 ft
< 800m
< 200 ft
Symbols :   Thunderstorms  Fog  Heavy snow  Heavy precipitations  Wind > 20 kt
SIGMETs :     Misc.  Thunderstorms  Icing  Turbulence  Mountain Waves  Volcanic Ashes







- Airport Elevation : 228 ft
- IATA code : OPO


LPPR - Porto Fr. Sa Carneiro

CURRENT METAR :
  • 201730Z 31006KT CAVOK 30/12 Q1014

EXPIRED METARs :
  • 201700Z 30006KT 260V330 CAVOK 30/12 Q1014
  • 201630Z 32007KT CAVOK 30/13 Q1015
  • 201600Z 28004KT 230V320 CAVOK 30/13 Q1015
  • 201530Z 30005KT CAVOK 30/14 Q1015
  • 201500Z 29006KT 260V320 CAVOK 31/13 Q1015

TAF TAF LPPR
Valid from the 20 at 18:00 until the 21 at 18:00 UTC


201700Z 2018/2118 32007KT CAVOK
BECMG 2018/2020 VRB03KT
BECMG 2100/2102 09007KT
BECMG 2110/2112 25005KT
BECMG 2114/2116 30007KT
No reported NOTAMs for that airfield.
1 SIGMET reported for the Lisboa FIR (LPPC) :
 
Frequent thunderstorms
LPPC SIGMET 1 VALID 201700/201830 LPPT
LPPC LISBON FIR FRQ TS FCST E OF LINE N3730 W00800 - N3845 W00800 TOP FL400 STNR NC=



MET'MAP, your aeronautical weather chart ! - Copyright ORBIFLY December 2007 - Disclaimer

ORBIFLY MET'MAP TEAM :

Programming & Development : Alexandra Zaïnal
Concept & Development : Baudouin d'Aumeries
Co-Development & Prog : Marc-Olivier Méhu
Technical & hardware support : Manuel Goepfert

Contact : metmap@orbifly.com




SOURCES & CREDITS :

   NOAA